Time;durP1;ratioP1;P1;durP2;ratioP2;P2;SDS_P1;SDS_P2;PMS_P1;PMS_P2;Temp;Humidity;BMP_temperature;BMP_pressure;BME280_temperature;BME280_humidity;BME280_pressure;Samples;Min_cycle;Max_cycle;Signal;HPM_P1;HPM_P2
2021/03/08 00:01:08;;;;;;;6.50;1.58;;;;;;;-0.31;52.58;102204.06;5042180;28;20418;-70
2021/03/08 00:03:34;;;;;;;11.40;2.35;;;;;;;-0.47;52.91;102209.63;5046739;28;20033;-69
2021/03/08 00:05:59;;;;;;;5.45;1.38;;;;;;;-0.44;52.75;102218.25;5033635;28;20661;-70
2021/03/08 00:08:25;;;;;;;10.27;1.67;;;;;;;-0.47;52.79;102215.63;5048107;28;20045;-69
2021/03/08 00:10:50;;;;;;;3.38;0.82;;;;;;;-0.50;52.76;102210.41;5049490;28;20112;-69
2021/03/08 00:13:16;;;;;;;4.88;1.08;;;;;;;-0.56;52.88;102212.81;5045058;28;20045;-70
2021/03/08 00:15:42;;;;;;;14.73;0.95;;;;;;;-0.54;53.00;102220.56;5045642;28;20025;-69
2021/03/08 00:18:07;;;;;;;3.90;0.68;;;;;;;-0.43;52.54;102220.03;5043242;28;20030;-69
2021/03/08 00:20:33;;;;;;;6.80;1.45;;;;;;;-0.54;52.71;102220.56;5052607;28;20063;-70
2021/03/08 00:22:59;;;;;;;3.25;0.93;;;;;;;-0.67;52.75;102220.22;5045907;28;20025;-70
2021/03/08 00:25:32;;;;;;;7.63;0.70;;;;;;;-0.70;52.71;102217.56;5044006;28;20098;-70
2021/03/08 00:27:59;;;;;;;13.73;2.33;;;;;;;-0.70;52.85;102214.13;5046100;28;20052;-69
2021/03/08 00:30:25;;;;;;;6.32;1.85;;;;;;;-0.82;53.18;102212.94;5043380;28;20075;-69
2021/03/08 00:32:51;;;;;;;10.45;1.55;;;;;;;-0.86;53.13;102211.13;5042542;28;20029;-70
2021/03/08 00:35:17;;;;;;;7.57;1.17;;;;;;;-0.88;53.28;102211.91;5058188;28;20033;-70
2021/03/08 00:37:44;;;;;;;3.03;0.50;;;;;;;-0.84;53.06;102214.59;5059624;28;20064;-71
2021/03/08 00:40:18;;;;;;;6.07;1.38;;;;;;;-0.74;52.96;102210.59;5030896;28;20037;-70
2021/03/08 00:42:45;;;;;;;7.47;0.88;;;;;;;-0.60;52.86;102218.69;5044257;28;20037;-70
2021/03/08 00:45:17;;;;;;;9.75;1.60;;;;;;;-0.42;52.35;102214.03;5042354;28;20033;-70
2021/03/08 00:47:45;;;;;;;2.42;0.30;;;;;;;-0.50;52.49;102214.66;5031140;28;20037;-70
2021/03/08 00:50:20;;;;;;;5.97;0.35;;;;;;;-0.46;52.06;102221.63;5043216;28;20029;-70
2021/03/08 00:52:46;;;;;;;4.75;0.30;;;;;;;-0.46;52.12;102221.63;5048573;28;20029;-70
2021/03/08 00:55:13;;;;;;;5.28;0.70;;;;;;;-0.53;52.05;102214.59;5044404;28;20447;-69
2021/03/08 00:57:39;;;;;;;3.67;0.60;;;;;;;-0.87;52.87;102213.63;5048350;28;20051;-70
2021/03/08 01:00:08;;;;;;;12.25;1.25;;;;;;;-1.00;53.05;102223.53;5046843;28;20030;-69
2021/03/08 01:02:38;;;;;;;5.45;0.57;;;;;;;-1.15;53.33;102220.50;5050423;28;20049;-70
2021/03/08 01:05:07;;;;;;;6.07;0.68;;;;;;;-1.13;53.37;102218.81;5047309;28;20092;-69
2021/03/08 01:07:33;;;;;;;6.57;1.25;;;;;;;-0.99;53.08;102216.72;5042384;28;20048;-69
2021/03/08 01:09:58;;;;;;;4.82;0.57;;;;;;;-0.92;52.98;102215.22;5054173;28;20037;-70
2021/03/08 01:12:24;;;;;;;1.30;0.32;;;;;;;-1.02;53.42;102212.38;5049614;28;20029;-69
2021/03/08 01:14:53;;;;;;;2.38;0.57;;;;;;;-1.11;53.29;102213.75;5044468;28;20539;-70
2021/03/08 01:17:19;;;;;;;5.95;0.30;;;;;;;-1.17;53.08;102215.31;5047628;28;20152;-69
2021/03/08 01:19:44;;;;;;;12.27;1.10;;;;;;;-1.18;53.19;102205.84;5046255;28;20060;-70
2021/03/08 01:22:10;;;;;;;4.50;0.73;;;;;;;-1.39;53.60;102216.34;5047390;28;20029;-70
2021/03/08 01:24:36;;;;;;;6.38;0.85;;;;;;;-1.36;53.53;102212.13;5046590;28;20122;-70
2021/03/08 01:27:01;;;;;;;7.78;0.40;;;;;;;-1.20;53.45;102206.63;5041658;28;20056;-70
2021/03/08 01:29:27;;;;;;;8.18;1.10;;;;;;;-1.22;53.36;102203.16;5047952;28;20483;-69
2021/03/08 01:31:52;;;;;;;8.85;0.82;;;;;;;-1.33;53.71;102207.09;5047917;28;20893;-70
2021/03/08 01:34:18;;;;;;;7.15;0.63;;;;;;;-1.38;53.50;102205.25;5046212;28;20037;-70
2021/03/08 01:36:43;;;;;;;1.63;0.35;;;;;;;-1.33;53.29;102207.97;5045857;28;20068;-72
2021/03/08 01:39:09;;;;;;;2.63;0.60;;;;;;;-1.38;53.53;102199.25;5043553;28;20110;-72
2021/03/08 01:41:34;;;;;;;2.53;0.40;;;;;;;-1.48;53.65;102198.13;5048821;28;20091;-70
2021/03/08 01:44:00;;;;;;;11.35;0.90;;;;;;;-1.50;53.49;102204.88;5044018;28;20061;-69
2021/03/08 01:46:25;;;;;;;10.07;1.33;;;;;;;-1.53;53.59;102209.94;5048304;28;20586;-69
2021/03/08 01:48:52;;;;;;;12.07;2.08;;;;;;;-1.62;53.74;102209.59;5044818;28;20880;-69
2021/03/08 01:51:18;;;;;;;9.25;1.10;;;;;;;-1.54;53.65;102197.91;5044389;28;20454;-69
2021/03/08 01:53:44;;;;;;;5.20;0.50;;;;;;;-1.60;53.47;102207.97;5043648;28;20028;-70
2021/03/08 01:56:10;;;;;;;16.20;2.60;;;;;;;-1.73;53.84;102205.81;5044600;28;20048;-69
2021/03/08 01:58:36;;;;;;;12.10;2.85;;;;;;;-1.77;53.99;102206.56;5047737;28;20044;-69
2021/03/08 02:01:02;;;;;;;10.73;2.15;;;;;;;-1.75;54.03;102215.19;5045131;28;20033;-70
2021/03/08 02:03:28;;;;;;;22.40;5.00;;;;;;;-1.68;53.93;102205.16;5048687;28;20032;-70
2021/03/08 02:05:54;;;;;;;27.40;6.65;;;;;;;-1.49;53.15;102206.59;5046444;28;20531;-70
2021/03/08 02:08:22;;;;;;;28.00;6.47;;;;;;;-1.53;53.33;102203.91;5047540;28;20029;-69
2021/03/08 02:10:49;;;;;;;26.98;6.68;;;;;;;-1.62;53.61;102204.47;5044629;28;20029;-69
2021/03/08 02:13:23;;;;;;;13.15;2.60;;;;;;;-1.54;53.24;102199.63;5030172;28;20397;-70
2021/03/08 02:16:23;;;;;;;18.50;2.92;;;;;;;-1.48;53.11;102192.97;5047186;28;20033;-70
2021/03/08 02:18:59;;;;;;;9.68;2.00;;;;;;;-1.59;53.13;102191.78;5041920;28;20049;-70
2021/03/08 02:21:52;;;;;;;16.65;3.40;;;;;;;-1.58;52.95;102196.06;5029565;28;20095;-70
2021/03/08 02:24:26;;;;;;;12.27;2.38;;;;;;;-1.53;52.85;102189.41;5044880;28;20357;-70
2021/03/08 02:26:56;;;;;;;15.50;2.22;;;;;;;-1.68;52.74;102188.94;5046385;28;20079;-70
2021/03/08 02:29:53;;;;;;;7.22;1.60;;;;;;;-1.67;52.91;102195.78;5042156;28;20075;-70
2021/03/08 02:32:21;;;;;;;11.10;2.00;;;;;;;-1.65;52.96;102194.13;5045346;28;20107;-70
2021/03/08 02:34:58;;;;;;;10.75;2.35;;;;;;;-1.67;53.10;102194.09;5040852;28;20029;-69
2021/03/08 02:37:28;;;;;;;13.05;2.60;;;;;;;-1.59;53.04;102195.22;5043235;28;20048;-72
2021/03/08 02:40:04;;;;;;;7.90;1.63;;;;;;;-1.66;52.85;102205.22;5027471;28;20040;-70
2021/03/08 02:42:36;;;;;;;8.05;1.92;;;;;;;-1.74;52.95;102194.72;5048554;28;20036;-70
2021/03/08 02:45:04;;;;;;;14.45;3.03;;;;;;;-1.83;53.04;102202.97;5038758;28;20056;-70
2021/03/08 02:47:33;;;;;;;12.40;2.13;;;;;;;-1.84;52.78;102198.69;5043402;28;20037;-69
2021/03/08 02:50:02;;;;;;;6.93;1.45;;;;;;;-1.95;53.31;102189.78;5037644;28;20803;-71
2021/03/08 02:52:32;;;;;;;7.88;2.47;;;;;;;-1.97;53.52;102193.97;5047827;28;20025;-71
2021/03/08 02:55:00;;;;;;;5.40;1.48;;;;;;;-1.88;53.40;102191.72;5041466;28;20094;-71
2021/03/08 02:57:31;;;;;;;13.48;3.28;;;;;;;-1.84;53.21;102198.69;5049336;28;20037;-70
2021/03/08 03:00:01;;;;;;;7.22;2.45;;;;;;;-1.86;52.96;102192.63;5040563;28;20083;-70
2021/03/08 03:02:27;;;;;;;8.80;1.67;;;;;;;-1.96;52.99;102208.50;5046485;28;20035;-70
2021/03/08 03:04:53;;;;;;;7.28;1.42;;;;;;;-1.88;52.91;102209.66;5043614;28;20041;-70
2021/03/08 03:07:21;;;;;;;7.85;1.77;;;;;;;-2.03;53.13;102212.56;5048416;28;20681;-70
2021/03/08 03:09:49;;;;;;;6.00;1.50;;;;;;;-2.03;52.98;102204.00;5044208;28;20029;-70
2021/03/08 03:12:16;;;;;;;7.30;1.45;;;;;;;-2.07;53.08;102207.28;5031226;28;20075;-69
2021/03/08 03:14:43;;;;;;;9.68;2.08;;;;;;;-2.15;52.97;102211.28;5030586;28;20106;-70
2021/03/08 03:17:13;;;;;;;12.48;1.15;;;;;;;-2.21;53.03;102214.50;5043049;28;20618;-70
2021/03/08 03:19:44;;;;;;;5.18;1.25;;;;;;;-2.25;53.07;102216.06;5038898;28;20025;-70
2021/03/08 03:22:12;;;;;;;4.88;0.60;;;;;;;-2.22;52.98;102223.03;5043617;28;20025;-71
2021/03/08 03:24:39;;;;;;;4.97;1.30;;;;;;;-2.16;52.92;102215.53;5041926;28;20373;-70
2021/03/08 03:27:06;;;;;;;6.32;1.48;;;;;;;-2.32;53.20;102219.25;5042520;28;20045;-71
2021/03/08 03:29:37;;;;;;;10.25;1.67;;;;;;;-2.47;53.68;102216.16;5044580;28;20029;-71
2021/03/08 03:32:04;;;;;;;4.97;0.55;;;;;;;-2.46;53.70;102220.47;5045665;28;20053;-71
2021/03/08 03:34:31;;;;;;;8.88;1.75;;;;;;;-2.30;53.24;102219.31;5041104;28;20025;-70
2021/03/08 03:36:59;;;;;;;7.55;2.30;;;;;;;-2.32;53.40;102220.94;5044297;28;20037;-70
2021/03/08 03:39:25;;;;;;;6.25;1.63;;;;;;;-2.32;53.04;102223.50;5048015;28;20065;-70
2021/03/08 03:41:50;;;;;;;9.32;1.77;;;;;;;-2.35;52.92;102228.53;5043835;28;20040;-70
2021/03/08 03:44:16;;;;;;;12.07;3.72;;;;;;;-2.36;52.91;102230.19;5042953;28;20025;-71
2021/03/08 03:46:43;;;;;;;11.95;2.42;;;;;;;-2.35;53.00;102241.34;5041556;28;20091;-71
2021/03/08 03:49:14;;;;;;;17.17;2.45;;;;;;;-2.36;52.94;102235.31;5042240;28;20025;-70
2021/03/08 03:51:40;;;;;;;8.32;1.52;;;;;;;-2.39;53.03;102240.34;5041262;28;20029;-71
2021/03/08 03:54:06;;;;;;;11.23;2.05;;;;;;;-2.34;52.79;102236.25;5044074;28;20416;-69
2021/03/08 03:56:33;;;;;;;9.63;1.23;;;;;;;-2.44;52.90;102244.44;5039384;28;20107;-69
2021/03/08 03:59:37;;;;;;;9.27;1.85;;;;;;;-2.47;52.92;102245.19;5023976;28;20042;-70
2021/03/08 04:02:10;;;;;;;10.18;1.48;;;;;;;-2.55;53.11;102255.97;5018941;28;20033;-70
2021/03/08 04:04:42;;;;;;;5.60;1.15;;;;;;;-2.48;52.76;102257.94;5043976;28;20036;-70
2021/03/08 04:07:09;;;;;;;11.25;1.10;;;;;;;-2.51;52.99;102257.84;5043006;28;20045;-71
2021/03/08 04:09:38;;;;;;;3.38;1.05;;;;;;;-2.59;53.16;102260.09;5045263;28;20067;-70
2021/03/08 04:12:09;;;;;;;8.13;0.75;;;;;;;-2.59;52.95;102261.78;5039180;28;20033;-69
2021/03/08 04:14:36;;;;;;;9.57;1.02;;;;;;;-2.64;53.10;102262.50;5041853;28;20066;-71
2021/03/08 04:17:02;;;;;;;4.65;0.90;;;;;;;-2.63;53.15;102279.59;5043961;28;20048;-70
2021/03/08 04:19:33;;;;;;;9.88;1.38;;;;;;;-2.57;52.98;102272.97;5044278;28;20767;-70
2021/03/08 04:22:05;;;;;;;6.72;1.23;;;;;;;-2.61;52.89;102271.97;5039871;28;20037;-70
2021/03/08 04:24:32;;;;;;;7.53;1.42;;;;;;;-2.55;54.05;102268.78;5044965;28;20522;-70
2021/03/08 04:27:05;;;;;;;4.95;1.02;;;;;;;-2.48;53.99;102274.16;5046165;28;20033;-70
2021/03/08 04:29:52;;;;;;;6.55;1.05;;;;;;;-2.47;53.96;102280.16;5040637;28;20079;-70
2021/03/08 04:32:18;;;;;;;2.78;0.73;;;;;;;-2.37;53.78;102279.69;5041437;28;20096;-69
2021/03/08 04:34:45;;;;;;;8.07;1.35;;;;;;;-2.37;53.08;102284.81;5040677;28;20045;-69
2021/03/08 04:37:16;;;;;;;7.70;0.65;;;;;;;-2.45;53.18;102289.66;5056216;28;20032;-69
2021/03/08 04:39:44;;;;;;;14.43;1.25;;;;;;;-2.46;53.27;102287.03;5060541;28;20137;-69
2021/03/08 04:42:12;;;;;;;8.32;0.88;;;;;;;-2.54;53.04;102294.41;5062367;28;20037;-69
2021/03/08 04:44:39;;;;;;;5.65;0.82;;;;;;;-2.57;53.23;102288.31;5051222;28;20068;-69
2021/03/08 04:47:06;;;;;;;5.05;0.82;;;;;;;-2.57;53.38;102290.88;5040120;28;20041;-70
2021/03/08 04:49:35;;;;;;;7.07;0.77;;;;;;;-2.50;53.33;102295.41;5043385;28;20036;-69
2021/03/08 04:52:02;;;;;;;8.90;0.70;;;;;;;-2.67;53.54;102293.09;5043179;28;20083;-69
2021/03/08 04:54:28;;;;;;;8.15;0.95;;;;;;;-2.80;53.84;102290.91;5047219;28;20043;-69
2021/03/08 04:56:55;;;;;;;2.10;0.45;;;;;;;-2.81;53.58;102299.38;5045201;28;20041;-69
2021/03/08 04:59:24;;;;;;;1.38;0.60;;;;;;;-2.82;53.44;102296.78;5046256;28;20037;-69
2021/03/08 05:01:52;;;;;;;8.52;0.90;;;;;;;-2.91;53.38;102292.19;5046433;28;20037;-69
2021/03/08 05:04:20;;;;;;;3.75;0.85;;;;;;;-3.02;53.49;102288.34;5066713;28;20038;-69
2021/03/08 05:06:46;;;;;;;1.90;0.77;;;;;;;-3.08;53.66;102292.38;5049982;28;20036;-70
2021/03/08 05:09:14;;;;;;;3.03;1.40;;;;;;;-3.10;53.58;102296.56;5033255;28;20029;-70
2021/03/08 05:11:44;;;;;;;9.73;0.80;;;;;;;-3.15;53.68;102300.63;5048112;28;20025;-70
2021/03/08 05:14:12;;;;;;;4.70;1.27;;;;;;;-3.15;53.63;102297.19;5027330;28;20029;-70
2021/03/08 05:16:44;;;;;;;6.72;1.05;;;;;;;-3.11;53.59;102292.25;5051020;28;20078;-70
2021/03/08 05:19:11;;;;;;;4.75;1.50;;;;;;;-3.17;53.70;102293.72;5045683;28;20038;-70
2021/03/08 05:21:37;;;;;;;12.00;2.15;;;;;;;-3.16;53.59;102296.34;5050012;28;20037;-70
2021/03/08 05:24:05;;;;;;;10.15;1.38;;;;;;;-3.18;53.84;102295.41;5047926;28;20649;-69
2021/03/08 05:26:31;;;;;;;6.93;1.58;;;;;;;-3.14;53.73;102294.72;5046177;28;20037;-70
2021/03/08 05:28:59;;;;;;;1.23;0.47;;;;;;;-3.21;53.99;102294.38;5025866;28;20132;-70
2021/03/08 05:31:32;;;;;;;11.93;1.33;;;;;;;-3.14;54.81;102299.84;5062680;28;20037;-70
2021/03/08 05:34:03;;;;;;;4.90;1.00;;;;;;;-3.08;55.79;102301.75;5058018;28;20048;-69
2021/03/08 05:36:32;;;;;;;8.55;1.10;;;;;;;-2.92;55.10;102311.75;5054567;28;20156;-69
2021/03/08 05:38:58;;;;;;;9.45;0.90;;;;;;;-2.84;55.33;102306.94;5061238;23;20053;-72
2021/03/08 05:41:32;;;;;;;3.72;0.90;;;;;;;-2.75;54.90;102309.84;5045802;28;20517;-72
2021/03/08 05:44:05;;;;;;;7.78;1.17;;;;;;;-2.71;54.17;102313.41;5039703;28;20036;-74
2021/03/08 05:47:17;;;;;;;2.72;1.15;;;;;;;-2.75;54.16;102330.31;5043589;28;20078;-73
2021/03/08 05:50:33;;;;;;;2.25;0.85;;;;;;;-2.68;54.88;102327.19;5026920;28;20048;-72
2021/03/08 05:53:23;;;;;;;4.57;1.02;;;;;;;-2.66;54.79;102325.56;5018887;28;20045;-73
2021/03/08 05:56:13;;;;;;;4.07;1.15;;;;;;;-2.62;54.77;102324.00;5033710;28;20048;-73
2021/03/08 05:58:51;;;;;;;6.18;1.17;;;;;;;-2.59;53.89;102330.91;5052863;28;20025;-76
2021/03/08 06:01:40;;;;;;;6.38;0.95;;;;;;;-2.65;53.39;102329.88;5037643;28;20069;-74
2021/03/08 06:04:43;;;;;;;12.10;1.60;;;;;;;-2.70;53.44;102336.47;5037321;28;20717;-74
2021/03/08 06:07:28;;;;;;;5.75;0.52;;;;;;;-2.77;53.41;102333.66;5039431;28;20071;-74
2021/03/08 06:10:07;;;;;;;4.40;1.33;;;;;;;-2.86;53.48;102326.47;5036771;28;20044;-74
2021/03/08 06:12:37;;;;;;;9.07;1.88;;;;;;;-2.84;53.29;102335.09;5054270;28;20502;-76
2021/03/08 06:15:15;;;;;;;8.13;1.33;;;;;;;-2.87;53.47;102335.84;5034258;28;20037;-76
2021/03/08 06:17:40;;;;;;;2.47;1.00;;;;;;;-2.89;53.61;102336.59;5035930;28;20037;-77
2021/03/08 06:20:07;;;;;;;4.10;1.33;;;;;;;-2.80;53.91;102342.09;5036899;28;20547;-77
2021/03/08 06:22:34;;;;;;;3.53;1.15;;;;;;;-2.64;53.27;102349.53;5056409;28;20505;-76
2021/03/08 06:25:00;;;;;;;6.22;1.25;;;;;;;-2.66;53.23;102353.72;5023111;28;20138;-76
2021/03/08 06:27:26;;;;;;;6.38;0.93;;;;;;;-2.54;53.20;102355.00;5040970;28;20033;-76
2021/03/08 06:29:53;;;;;;;2.80;1.02;;;;;;;-2.51;52.33;102361.13;5038017;28;20571;-76
2021/03/08 06:32:20;;;;;;;3.75;1.17;;;;;;;-2.40;52.34;102358.06;5054732;28;20033;-75
2021/03/08 06:34:46;;;;;;;2.10;0.75;;;;;;;-2.43;52.70;102354.56;5042029;28;20068;-76
2021/03/08 06:37:13;;;;;;;2.95;0.90;;;;;;;-2.37;53.07;102361.63;5056169;28;20071;-76
2021/03/08 06:39:44;;;;;;;7.97;1.48;;;;;;;-2.22;52.75;102356.22;5019627;28;20037;-76
2021/03/08 06:42:11;;;;;;;3.17;0.85;;;;;;;-2.07;52.36;102358.44;5021867;28;20043;-77
2021/03/08 06:44:37;;;;;;;7.25;1.27;;;;;;;-1.91;51.94;102363.31;5049899;28;20317;-76
2021/03/08 06:47:08;;;;;;;5.90;1.30;;;;;;;-1.86;51.70;102361.78;5038749;28;20048;-76
2021/03/08 06:49:34;;;;;;;7.25;1.23;;;;;;;-1.69;51.43;102366.63;5040953;28;20032;-76
2021/03/08 06:52:11;;;;;;;13.00;1.80;;;;;;;-1.55;51.04;102368.00;5022435;28;20036;-76
2021/03/08 06:54:57;;;;;;;3.53;1.10;;;;;;;-1.25;50.82;102363.00;5040407;28;20277;-77
2021/03/08 06:57:25;;;;;;;7.72;0.68;;;;;;;0.59;48.88;102354.69;5035647;28;20041;-76
2021/03/08 06:59:54;;;;;;;2.25;0.60;;;;;;;2.80;44.46;102357.53;5038044;28;20041;-76
2021/03/08 07:02:39;;;;;;;6.57;1.23;;;;;;;4.76;37.57;102349.56;5033833;28;20048;-74
2021/03/08 07:05:06;;;;;;;6.88;0.60;;;;;;;6.21;34.47;102340.81;5016182;28;20510;-74
2021/03/08 07:07:54;;;;;;;3.10;1.23;;;;;;;7.25;33.00;102344.28;5036035;28;20033;-74
2021/03/08 07:10:40;;;;;;;3.45;0.88;;;;;;;8.06;29.76;102345.69;5033607;28;20797;-74
2021/03/08 07:13:08;;;;;;;3.25;0.77;;;;;;;8.29;29.18;102350.75;5035513;28;20039;-74
2021/03/08 07:15:57;;;;;;;6.70;1.17;;;;;;;8.67;29.22;102349.59;5054166;28;20407;-74
2021/03/08 07:18:24;;;;;;;11.43;0.98;;;;;;;9.18;27.71;102347.41;5035056;28;20059;-74
2021/03/08 07:20:54;;;;;;;2.90;1.20;;;;;;;9.46;27.90;102363.63;5030544;28;20060;-75
2021/03/08 07:23:26;;;;;;;3.45;0.88;;;;;;;9.47;27.81;102370.56;5020535;28;20125;-74
2021/03/08 07:26:04;;;;;;;1.77;0.55;;;;;;;9.83;26.25;102372.78;5004306;28;20076;-74
2021/03/08 07:28:30;;;;;;;3.47;0.57;;;;;;;10.07;25.61;102366.38;5020155;28;20033;-75
2021/03/08 07:30:55;;;;;;;5.70;1.15;;;;;;;9.95;26.70;102367.41;5034532;28;20036;-74
2021/03/08 07:33:21;;;;;;;4.75;0.75;;;;;;;10.05;24.96;102366.38;5021561;28;20550;-75
2021/03/08 07:35:48;;;;;;;3.60;0.80;;;;;;;10.31;26.11;102370.38;5020249;28;20021;-76
2021/03/08 07:38:16;;;;;;;7.35;0.95;;;;;;;10.55;25.25;102372.59;5019082;28;20595;-74
2021/03/08 07:40:43;;;;;;;6.80;1.23;;;;;;;10.33;25.05;102364.25;5015297;28;20045;-74
2021/03/08 07:43:23;;;;;;;2.42;0.30;;;;;;;10.10;25.21;102372.44;5019250;28;20172;-76
2021/03/08 07:45:49;;;;;;;2.88;0.68;;;;;;;10.72;25.34;102372.31;5017067;28;20045;-75
2021/03/08 07:48:17;;;;;;;6.97;0.88;;;;;;;10.78;25.22;102371.38;5022052;28;20025;-75
2021/03/08 07:50:45;;;;;;;5.35;0.90;;;;;;;10.57;24.17;102378.69;5017604;28;20075;-75
2021/03/08 07:53:28;;;;;;;4.03;0.93;;;;;;;9.66;25.58;102379.06;5016022;28;20274;-75
2021/03/08 07:55:55;;;;;;;4.43;0.88;;;;;;;7.79;27.48;102373.59;5013454;28;20555;-76
2021/03/08 07:58:21;;;;;;;7.05;0.98;;;;;;;6.50;30.56;102381.56;5022081;28;20044;-76
2021/03/08 08:00:46;;;;;;;2.83;0.90;;;;;;;6.16;31.50;102388.41;5007896;28;20037;-74
2021/03/08 08:03:13;;;;;;;3.72;0.60;;;;;;;6.72;30.15;102384.19;5032699;28;20030;-74
2021/03/08 08:05:39;;;;;;;3.97;1.15;;;;;;;7.70;29.09;102387.50;5004710;28;20044;-75
2021/03/08 08:08:07;;;;;;;4.05;0.88;;;;;;;8.09;27.78;102393.44;5019479;28;20356;-75
2021/03/08 08:10:33;;;;;;;7.60;0.70;;;;;;;8.58;28.51;102392.22;5008774;28;20489;-74
2021/03/08 08:13:01;;;;;;;6.65;1.40;;;;;;;9.66;26.50;102391.25;5016270;28;20041;-76
2021/03/08 08:15:27;;;;;;;2.70;0.90;;;;;;;10.26;26.07;102382.63;4999321;28;20042;-74
2021/03/08 08:17:55;;;;;;;1.27;0.40;;;;;;;10.18;26.37;102381.00;5017507;28;20036;-75
2021/03/08 08:20:21;;;;;;;3.45;0.85;;;;;;;10.28;24.97;102384.34;5033235;28;20072;-77
2021/03/08 08:22:58;;;;;;;2.33;0.65;;;;;;;10.19;25.05;102380.13;5014812;28;20081;-77
2021/03/08 08:25:25;;;;;;;8.75;0.85;;;;;;;10.12;25.85;102381.06;5039324;28;20583;-76
2021/03/08 08:27:51;;;;;;;3.67;0.90;;;;;;;10.24;26.51;102387.03;5017647;28;20158;-74
2021/03/08 08:30:20;;;;;;;3.58;0.50;;;;;;;11.09;25.48;102383.94;5023937;28;20110;-77
2021/03/08 08:32:53;;;;;;;8.20;1.10;;;;;;;10.80;25.10;102380.91;5020345;28;20104;-75
2021/03/08 08:35:24;;;;;;;9.32;0.80;;;;;;;10.91;25.45;102380.75;5021376;28;20067;-74
2021/03/08 08:38:08;;;;;;;8.65;0.75;;;;;;;10.92;25.44;102385.09;5017604;28;20531;-76
2021/03/08 08:40:35;;;;;;;3.05;0.93;;;;;;;11.18;24.37;102381.16;5018457;28;20118;-74
2021/03/08 08:43:15;;;;;;;3.47;0.80;;;;;;;10.78;25.72;102384.44;5025497;28;20053;-76
2021/03/08 08:45:54;;;;;;;8.30;0.98;;;;;;;10.21;26.87;102383.59;5024775;28;20112;-77
2021/03/08 08:48:21;;;;;;;5.57;0.82;;;;;;;9.81;27.91;102385.84;5022286;28;20046;-75
2021/03/08 08:50:55;;;;;;;4.53;0.63;;;;;;;8.76;27.56;102376.50;5009587;28;20065;-75
2021/03/08 08:53:37;;;;;;;4.82;0.50;;;;;;;8.84;26.51;102381.63;5028467;28;20045;-75
2021/03/08 08:56:03;;;;;;;2.83;0.70;;;;;;;8.32;27.72;102384.63;5027057;28;20076;-76
2021/03/08 08:58:31;;;;;;;1.98;0.60;;;;;;;8.69;27.29;102372.16;5006333;28;20044;-77
2021/03/08 09:01:12;;;;;;;5.30;0.47;;;;;;;7.93;27.72;102376.13;5020611;28;20399;-76
2021/03/08 09:03:59;;;;;;;5.65;0.70;;;;;;;7.19;28.84;102376.34;5006677;28;20033;-76
2021/03/08 09:06:47;;;;;;;1.40;0.43;;;;;;;7.08;30.71;102378.09;5011432;28;20072;-77
2021/03/08 09:09:19;;;;;;;5.25;0.80;;;;;;;7.01;29.31;102381.59;5020910;28;20520;-76
2021/03/08 09:11:51;;;;;;;5.43;0.50;;;;;;;6.71;30.08;102378.13;5020770;28;20030;-77
2021/03/08 09:14:25;;;;;;;3.88;0.75;;;;;;;6.58;30.07;102379.84;5020930;28;20077;-77
2021/03/08 09:17:13;;;;;;;5.78;0.90;;;;;;;6.94;30.51;102375.53;5024539;28;20046;-77
2021/03/08 09:19:40;;;;;;;4.28;0.40;;;;;;;6.94;30.26;102379.88;5004222;28;20037;-74
2021/03/08 09:22:28;;;;;;;3.47;0.25;;;;;;;6.76;28.75;102381.59;5023981;28;20034;-75
2021/03/08 09:24:55;;;;;;;3.08;0.22;;;;;;;6.11;30.33;102372.81;5023759;28;20135;-77
2021/03/08 09:27:31;;;;;;;2.47;0.20;;;;;;;6.23;30.18;102377.16;5020909;28;20156;-77
2021/03/08 09:30:08;;;;;;;1.95;0.30;;;;;;;6.29;30.09;102385.88;5001889;28;20040;-76
2021/03/08 09:32:34;;;;;;;5.03;0.30;;;;;;;6.64;28.65;102386.78;5024825;28;20071;-77
2021/03/08 09:35:02;;;;;;;1.50;0.35;;;;;;;6.81;29.12;102389.38;5020696;28;20072;-76
2021/03/08 09:37:30;;;;;;;4.28;0.52;;;;;;;7.07;28.54;102377.25;5022806;28;20037;-75
2021/03/08 09:39:57;;;;;;;2.88;0.50;;;;;;;6.90;29.46;102384.19;5020374;28;20119;-79
2021/03/08 09:42:22;;;;;;;3.70;0.40;;;;;;;7.11;29.02;102381.56;5024132;28;20041;-73
2021/03/08 09:44:49;;;;;;;3.25;0.22;;;;;;;7.06;28.21;102379.84;5022421;28;20072;-74
2021/03/08 09:47:16;;;;;;;5.10;0.57;;;;;;;7.04;28.38;102390.25;5028760;28;20123;-79
2021/03/08 09:49:52;;;;;;;1.85;0.10;;;;;;;7.51;27.46;102375.41;5013395;28;20044;-78
2021/03/08 09:52:30;;;;;;;0.95;0.30;;;;;;;6.91;27.75;102385.94;5010662;28;20071;-78
2021/03/08 09:54:57;;;;;;;1.80;0.17;;;;;;;7.28;28.79;102385.88;5020886;28;20489;-78
2021/03/08 09:57:34;;;;;;;1.73;0.20;;;;;;;7.44;27.51;102377.16;5027034;28;20033;-78
2021/03/08 09:59:59;;;;;;;3.03;0.20;;;;;;;7.51;26.43;102378.00;5009983;28;22077;-80
2021/03/08 10:02:25;;;;;;;4.03;0.20;;;;;;;7.68;27.48;102381.44;5029705;28;20033;-79
2021/03/08 10:04:57;;;;;;;1.13;0.13;;;;;;;7.70;27.20;102379.72;5009032;28;20045;-79
2021/03/08 10:07:23;;;;;;;1.15;0.20;;;;;;;8.45;26.01;102381.06;5025152;28;20056;-79
2021/03/08 10:10:12;;;;;;;0.90;0.10;;;;;;;8.22;25.95;102388.13;5010099;28;20045;-78
2021/03/08 10:12:38;;;;;;;1.58;0.30;;;;;;;8.02;26.69;102389.09;5042135;28;20067;-79
2021/03/08 10:15:05;;;;;;;5.38;0.93;;;;;;;7.99;27.19;102391.72;5023479;28;20025;-81
2021/03/08 10:17:31;;;;;;;3.88;0.25;;;;;;;7.73;26.82;102390.13;5025475;28;20025;-79
2021/03/08 10:19:58;;;;;;;9.50;0.30;;;;;;;7.24;28.10;102382.41;5025606;28;20056;-79
2021/03/08 10:22:38;;;;;;;3.45;0.45;;;;;;;7.07;26.04;102398.03;5009217;28;20041;-79
2021/03/08 10:25:25;;;;;;;3.20;0.35;;;;;;;6.75;26.60;102384.19;5023039;28;20076;-79
2021/03/08 10:28:02;;;;;;;2.58;0.30;;;;;;;6.59;28.05;102383.31;5026210;28;20048;-80
2021/03/08 10:30:32;;;;;;;4.30;0.25;;;;;;;7.15;27.48;102382.41;5026541;28;20047;-78
2021/03/08 10:33:13;;;;;;;0.85;0.10;;;;;;;7.83;26.70;102384.88;5021074;28;20055;-78
2021/03/08 10:35:53;;;;;;;3.80;0.25;;;;;;;8.04;24.71;102378.69;5031409;28;20072;-77
2021/03/08 10:38:39;;;;;;;5.38;0.43;;;;;;;8.06;27.06;102385.63;5018226;28;20064;-78
2021/03/08 10:41:06;;;;;;;2.70;0.57;;;;;;;8.15;26.01;102384.69;5022018;28;20412;-78
2021/03/08 10:43:32;;;;;;;1.27;0.10;;;;;;;7.97;25.44;102388.28;5031383;23;20029;-69
2021/03/08 10:46:00;;;;;;;1.40;0.10;;;;;;;8.08;25.32;102381.25;4998755;28;20049;-72
2021/03/08 10:48:27;;;;;;;0.50;0.20;;;;;;;8.17;26.25;102379.50;4965733;28;20034;-69
2021/03/08 10:50:57;;;;;;;8.55;1.20;;;;;;;8.22;26.16;102382.94;4987766;28;20042;-71
2021/03/08 10:53:24;;;;;;;0.82;0.17;;;;;;;8.06;26.23;102377.81;4967744;28;20050;-70
2021/03/08 10:55:51;;;;;;;3.13;0.30;;;;;;;8.21;26.45;102387.28;4987649;28;20053;-70
2021/03/08 10:58:16;;;;;;;1.50;0.20;;;;;;;8.50;26.52;102379.25;4983194;28;20038;-71
2021/03/08 11:00:44;;;;;;;2.15;0.20;;;;;;;8.32;27.50;102382.88;4954567;28;20042;-70
2021/03/08 11:03:42;;;;;;;6.95;1.35;;;;;;;8.66;27.87;102380.00;4987184;28;20045;-69
2021/03/08 11:06:09;;;;;;;1.75;0.10;;;;;;;8.11;26.22;102368.25;4950267;28;20121;-70
2021/03/08 11:08:38;;;;;;;2.83;0.13;;;;;;;7.65;27.88;102371.06;4987630;28;20085;-70
2021/03/08 11:11:17;;;;;;;3.38;0.30;;;;;;;7.91;26.80;102378.75;4967940;28;20030;-71
2021/03/08 11:13:43;;;;;;;3.40;0.40;;;;;;;7.83;24.36;102371.84;4965042;28;20022;-70
2021/03/08 11:16:10;;;;;;;1.17;0.57;;;;;;;7.50;24.17;102377.13;4986012;28;20037;-72
2021/03/08 11:18:35;;;;;;;0.43;0.40;;;;;;;7.64;24.50;102376.25;4952400;28;20038;-70
2021/03/08 11:21:21;;;;;;;2.25;0.35;;;;;;;7.43;25.15;102371.97;4968327;28;20496;-70
2021/03/08 11:23:47;;;;;;;0.65;0.10;;;;;;;7.60;25.87;102369.34;4961908;28;20030;-71
2021/03/08 11:26:13;;;;;;;5.80;0.45;;;;;;;7.91;26.09;102372.66;4968476;28;20026;-70
2021/03/08 11:28:41;;;;;;;0.88;0.10;;;;;;;7.32;25.67;102372.00;4968634;28;20045;-72
2021/03/08 11:31:18;;;;;;;11.80;0.98;;;;;;;7.63;24.90;102378.00;4970274;28;20038;-70
2021/03/08 11:33:47;;;;;;;1.15;0.30;;;;;;;7.49;24.60;102364.16;4950836;28;20402;-69
2021/03/08 11:36:14;;;;;;;2.55;0.40;;;;;;;7.84;24.79;102370.97;4985917;28;20046;-69
2021/03/08 11:38:49;;;;;;;0.93;0.20;;;;;;;8.10;24.49;102371.72;5002049;23;20112;-82
2021/03/08 11:41:16;;;;;;;5.90;0.68;;;;;;;8.08;24.02;102364.78;5009369;28;20043;-82
2021/03/08 11:44:11;;;;;;;2.08;0.25;;;;;;;8.46;25.14;102356.72;5021463;28;20045;-82